createdAt,value
2022-11-05T00:00:31.073Z,2.15
2022-11-05T00:03:16.636Z,2.42
2022-11-05T00:06:04.992Z,1.90
2022-11-05T00:08:50.520Z,2.00
2022-11-05T00:11:18.653Z,2.20
2022-11-05T00:14:03.926Z,2.05
2022-11-05T00:16:46.849Z,1.90
2022-11-05T00:19:14.956Z,1.77
2022-11-05T00:22:01.802Z,2.10
2022-11-05T00:24:47.171Z,2.13
2022-11-05T00:27:15.007Z,1.70
2022-11-05T00:29:42.814Z,1.83
2022-11-05T00:32:10.701Z,2.03
2022-11-05T00:34:38.540Z,1.77
2022-11-05T00:37:07.755Z,2.05
2022-11-05T00:39:35.618Z,2.30
2022-11-05T00:42:21.090Z,2.22
2022-11-05T00:45:08.776Z,2.00
2022-11-05T00:47:54.198Z,2.10
2022-11-05T00:50:23.201Z,2.47
2022-11-05T00:52:59.626Z,2.20
2022-11-05T00:55:31.054Z,1.80
2022-11-05T00:57:59.011Z,2.00
2022-11-05T01:00:28.933Z,1.85
2022-11-05T01:02:59.683Z,1.92
2022-11-05T01:05:27.612Z,1.90
2022-11-05T01:07:57.371Z,1.98
2022-11-05T01:10:26.039Z,1.83
2022-11-05T01:12:54.425Z,2.53
2022-11-05T01:15:22.811Z,2.78
2022-11-05T01:17:52.241Z,2.38
2022-11-05T01:20:20.404Z,2.53
2022-11-05T01:22:48.236Z,2.83
2022-11-05T01:25:17.623Z,2.80
2022-11-05T01:27:45.772Z,2.88
2022-11-05T01:30:14.538Z,2.80
2022-11-05T01:32:42.493Z,2.60
2022-11-05T01:35:14.040Z,3.08
2022-11-05T01:37:42.467Z,2.92
2022-11-05T01:40:13.191Z,2.50
2022-11-05T01:42:42.469Z,2.58
2022-11-05T01:45:20.950Z,3.42
2022-11-05T01:48:00.787Z,3.00
2022-11-05T01:50:34.370Z,3.08
2022-11-05T01:53:07.042Z,2.60
2022-11-05T01:55:39.465Z,2.70
2022-11-05T01:58:13.503Z,2.58
2022-11-05T02:00:43.218Z,2.83
2022-11-05T02:03:12.393Z,2.70
2022-11-05T02:05:41.780Z,2.90
2022-11-05T02:08:12.448Z,2.50
2022-11-05T02:10:41.196Z,2.83
2022-11-05T02:13:10.511Z,2.42
2022-11-05T02:15:48.649Z,2.25
2022-11-05T02:18:24.051Z,2.40
2022-11-05T02:21:04.052Z,2.38
2022-11-05T02:24:09.181Z,2.42
2022-11-05T02:27:07.864Z,2.80
2022-11-05T02:30:08.909Z,2.70
2022-11-05T02:32:56.764Z,2.47
2022-11-05T02:35:36.924Z,2.70
2022-11-05T02:38:09.390Z,2.70
2022-11-05T02:40:47.737Z,2.35
2022-11-05T02:43:26.977Z,3.03
2022-11-05T02:46:03.712Z,2.75
2022-11-05T02:48:43.271Z,2.38
2022-11-05T02:51:19.276Z,2.33
2022-11-05T02:53:52.528Z,2.60
2022-11-05T02:56:23.966Z,2.30
2022-11-05T02:58:51.983Z,2.03
2022-11-05T03:01:20.043Z,2.10
2022-11-05T03:03:52.908Z,2.15
2022-11-05T03:06:47.667Z,2.30
2022-11-05T03:09:47.131Z,2.45
2022-11-05T03:12:22.690Z,2.30
2022-11-05T03:14:57.504Z,2.25
2022-11-05T03:17:37.758Z,2.60
2022-11-05T03:20:18.886Z,2.53
2022-11-05T03:22:52.156Z,2.53
2022-11-05T03:25:23.530Z,1.90
2022-11-05T03:27:57.415Z,2.77
2022-11-05T03:30:26.003Z,1.98
2022-11-05T03:32:59.224Z,2.53
2022-11-05T03:35:32.568Z,2.40
2022-11-05T03:38:04.684Z,2.72
2022-11-05T03:40:36.282Z,2.25
2022-11-05T03:43:07.758Z,1.65
2022-11-05T03:45:39.756Z,2.10
2022-11-05T03:48:11.528Z,2.50
2022-11-05T03:50:47.397Z,2.70
2022-11-05T03:53:18.067Z,2.70
2022-11-05T03:55:55.537Z,2.50
2022-11-05T03:58:24.582Z,2.33
2022-11-05T04:00:52.670Z,2.40
2022-11-05T04:03:20.614Z,2.58
2022-11-05T04:06:10.256Z,2.58
2022-11-05T04:08:55.628Z,2.58
2022-11-05T04:11:41.037Z,2.25
2022-11-05T04:14:08.869Z,2.53
2022-11-05T04:16:54.388Z,2.88
2022-11-05T04:19:36.152Z,2.78
2022-11-05T04:22:22.578Z,2.63
2022-11-05T04:24:50.402Z,3.10
2022-11-05T04:27:18.214Z,2.60
2022-11-05T04:30:03.596Z,3.00
2022-11-05T04:32:31.414Z,3.13
2022-11-05T04:34:59.247Z,3.30
2022-11-05T04:37:28.415Z,4.10
2022-11-05T04:39:56.274Z,4.07
2022-11-05T04:42:24.111Z,6.75
2022-11-05T04:44:51.938Z,5.80
2022-11-05T04:47:19.761Z,7.15
2022-11-05T04:49:47.599Z,3.80
2022-11-05T04:52:15.427Z,4.57
2022-11-05T04:54:44.661Z,5.10
2022-11-05T04:57:12.502Z,4.50
2022-11-05T04:59:41.067Z,4.13
2022-11-05T05:02:09.070Z,4.25
2022-11-05T05:04:36.966Z,3.78
2022-11-05T05:07:04.770Z,4.47
2022-11-05T05:09:32.604Z,4.97
2022-11-05T05:12:02.541Z,4.70
2022-11-05T05:14:30.452Z,4.70
2022-11-05T05:16:58.304Z,4.65
2022-11-05T05:19:27.590Z,4.68
2022-11-05T05:21:54.486Z,4.85
2022-11-05T05:24:24.946Z,5.20
2022-11-05T05:26:52.928Z,5.35
2022-11-05T05:29:22.099Z,5.13
2022-11-05T05:31:49.926Z,5.68
2022-11-05T05:34:17.758Z,5.60
2022-11-05T05:36:45.564Z,7.38
2022-11-05T05:39:14.455Z,7.20
2022-11-05T05:41:42.307Z,6.40
2022-11-05T05:44:10.139Z,5.60
2022-11-05T05:46:39.382Z,6.60
2022-11-05T05:49:12.213Z,6.78
2022-11-05T05:51:40.723Z,6.32
2022-11-05T05:54:09.438Z,6.03
2022-11-05T05:56:37.286Z,5.75
2022-11-05T05:59:06.919Z,5.65
2022-11-05T06:01:34.907Z,6.30
2022-11-05T06:04:04.252Z,5.47
2022-11-05T06:06:32.101Z,5.30
2022-11-05T06:08:59.907Z,4.95
2022-11-05T06:11:27.778Z,6.63
2022-11-05T06:13:55.650Z,5.60
2022-11-05T06:16:23.477Z,6.30
2022-11-05T06:18:51.348Z,5.40
2022-11-05T06:21:20.536Z,5.85
2022-11-05T06:23:49.751Z,6.90
2022-11-05T06:26:19.323Z,6.30
2022-11-05T06:28:47.282Z,5.90
2022-11-05T06:31:15.847Z,7.78
2022-11-05T06:33:43.722Z,6.13
2022-11-05T06:36:15.931Z,5.82
2022-11-05T06:38:45.137Z,5.65
2022-11-05T06:41:12.998Z,6.40
2022-11-05T06:43:41.196Z,7.05
2022-11-05T06:46:10.498Z,6.00
2022-11-05T06:48:38.862Z,6.50
2022-11-05T06:51:07.925Z,5.80
2022-11-05T06:53:36.039Z,6.25
2022-11-05T06:56:06.386Z,6.82
2022-11-05T06:58:34.650Z,6.70
2022-11-05T07:01:03.191Z,6.22
2022-11-05T07:03:31.152Z,6.38
2022-11-05T07:06:00.614Z,6.97
2022-11-05T07:08:31.120Z,6.85
2022-11-05T07:10:58.991Z,6.38
2022-11-05T07:13:28.254Z,6.30
2022-11-05T07:15:56.537Z,6.03
2022-11-05T07:18:24.748Z,6.00
2022-11-05T07:20:52.639Z,6.25
2022-11-05T07:23:20.494Z,6.35
2022-11-05T07:25:48.324Z,5.70
2022-11-05T07:28:16.139Z,6.13
2022-11-05T07:30:45.622Z,6.07
2022-11-05T07:33:13.971Z,5.53
2022-11-05T07:35:42.057Z,5.63
2022-11-05T07:38:10.198Z,5.30
2022-11-05T07:40:38.418Z,5.30
2022-11-05T07:43:06.234Z,5.63
2022-11-05T07:45:34.058Z,5.30
2022-11-05T07:48:05.228Z,5.15
2022-11-05T07:50:35.999Z,5.05
2022-11-05T07:53:05.455Z,4.88
2022-11-05T07:55:34.012Z,5.82
2022-11-05T07:58:01.880Z,4.97
2022-11-05T08:00:30.680Z,5.50
2022-11-05T08:03:07.218Z,5.03
2022-11-05T08:05:41.075Z,4.95
2022-11-05T08:08:10.361Z,5.18
2022-11-05T08:10:39.102Z,5.28
2022-11-05T08:13:08.422Z,4.70
2022-11-05T08:15:37.463Z,5.80
2022-11-05T08:18:07.446Z,5.13
2022-11-05T08:20:35.659Z,5.63
2022-11-05T08:23:05.131Z,5.13
2022-11-05T08:25:33.219Z,5.18
2022-11-05T08:28:03.466Z,5.35
2022-11-05T08:30:32.583Z,5.38
2022-11-05T08:33:02.147Z,5.50
2022-11-05T08:35:30.850Z,5.03
2022-11-05T08:38:00.526Z,5.53
2022-11-05T08:40:31.206Z,5.55
2022-11-05T08:42:59.640Z,4.93
2022-11-05T08:45:28.019Z,5.05
2022-11-05T08:48:00.623Z,5.45
2022-11-05T08:50:28.831Z,5.50
2022-11-05T08:52:56.862Z,5.22
2022-11-05T08:55:24.771Z,5.63
2022-11-05T08:57:58.017Z,5.57
2022-11-05T09:00:26.134Z,5.65
2022-11-05T09:02:54.013Z,5.85
2022-11-05T09:05:22.244Z,5.80
2022-11-05T09:07:50.092Z,5.72
2022-11-05T09:10:18.118Z,5.47
2022-11-05T09:12:46.009Z,5.72
2022-11-05T09:15:15.224Z,5.20
2022-11-05T09:17:43.145Z,5.43
2022-11-05T09:20:13.166Z,5.55
2022-11-05T09:22:43.395Z,5.55
2022-11-05T09:25:11.619Z,6.10
2022-11-05T09:27:39.485Z,5.80
2022-11-05T09:30:08.467Z,5.32
2022-11-05T09:32:37.823Z,6.60
2022-11-05T09:35:06.544Z,5.72
2022-11-05T09:37:34.415Z,6.07
2022-11-05T09:40:02.330Z,6.35
2022-11-05T09:42:35.710Z,5.40
2022-11-05T09:45:06.261Z,5.43
2022-11-05T09:47:40.261Z,5.10
2022-11-05T09:50:13.745Z,4.93
2022-11-05T09:52:41.582Z,5.45
2022-11-05T09:55:21.710Z,4.80
2022-11-05T09:57:53.671Z,4.68
2022-11-05T10:00:22.015Z,3.70
2022-11-05T10:02:54.887Z,4.32
2022-11-05T10:05:25.001Z,4.15
2022-11-05T10:07:57.625Z,2.67
2022-11-05T10:10:39.368Z,2.58
2022-11-05T10:13:18.738Z,2.65
2022-11-05T10:15:54.987Z,2.67
2022-11-05T10:18:29.661Z,3.00
2022-11-05T10:20:57.957Z,3.10
2022-11-05T10:23:28.530Z,3.85
2022-11-05T10:26:01.156Z,3.83
2022-11-05T10:28:30.361Z,4.30
2022-11-05T10:31:00.298Z,4.30
2022-11-05T10:33:34.700Z,4.32
2022-11-05T10:36:06.437Z,4.32
2022-11-05T10:38:34.684Z,4.53
2022-11-05T10:41:20.103Z,4.75
2022-11-05T10:43:51.114Z,4.70
2022-11-05T10:46:29.697Z,3.50
2022-11-05T10:49:16.658Z,3.00
2022-11-05T10:51:44.622Z,3.00
2022-11-05T10:54:17.994Z,2.83
2022-11-05T10:56:46.278Z,3.65
2022-11-05T10:59:22.711Z,2.83
2022-11-05T11:01:58.478Z,2.95
2022-11-05T11:04:34.924Z,3.25
2022-11-05T11:07:05.759Z,4.05
2022-11-05T11:09:37.076Z,4.30
2022-11-05T11:12:08.430Z,3.95
2022-11-05T11:14:36.331Z,4.70
2022-11-05T11:17:27.738Z,4.53
2022-11-05T11:20:20.808Z,4.40
2022-11-05T11:23:01.202Z,4.68
2022-11-05T11:25:31.144Z,4.43
2022-11-05T11:28:04.261Z,4.45
2022-11-05T11:30:33.707Z,5.15
2022-11-05T11:33:07.687Z,5.50
2022-11-05T11:35:39.066Z,5.40
2022-11-05T11:38:08.032Z,5.03
2022-11-05T11:40:38.817Z,5.85
2022-11-05T11:43:14.251Z,5.25
2022-11-05T11:45:47.767Z,5.18
2022-11-05T11:48:19.052Z,5.53
2022-11-05T11:50:49.315Z,5.32
2022-11-05T11:53:25.810Z,5.30
2022-11-05T11:56:16.386Z,5.93
2022-11-05T11:58:47.272Z,4.93
2022-11-05T12:01:50.746Z,4.63
2022-11-05T12:04:37.666Z,4.45
2022-11-05T12:07:18.411Z,3.67
2022-11-05T12:10:01.728Z,3.47
2022-11-05T12:12:37.343Z,4.35
2022-11-05T12:15:31.105Z,4.38
2022-11-05T12:18:13.496Z,3.92
2022-11-05T12:20:59.576Z,4.43
2022-11-05T12:23:47.731Z,4.00
2022-11-05T12:26:24.150Z,3.50
2022-11-05T12:29:20.909Z,3.40
2022-11-05T12:32:08.011Z,1.48
2022-11-05T12:34:45.812Z,1.10
2022-11-05T12:37:23.867Z,0.85
2022-11-05T12:40:04.532Z,1.02
2022-11-05T12:42:46.271Z,1.00
2022-11-05T12:45:23.406Z,1.00
2022-11-05T12:48:05.767Z,0.85
2022-11-05T12:50:40.864Z,1.00
2022-11-05T12:53:27.651Z,1.10
2022-11-05T12:56:02.406Z,1.00
2022-11-05T12:58:33.997Z,1.20
2022-11-05T13:01:05.734Z,1.40
2022-11-05T13:03:41.511Z,1.60
2022-11-05T13:06:12.972Z,1.13
2022-11-05T13:08:47.486Z,1.65
2022-11-05T13:11:24.617Z,1.60
2022-11-05T13:14:04.977Z,1.80
2022-11-05T13:16:37.117Z,2.03
2022-11-05T13:19:14.652Z,1.85
2022-11-05T13:21:44.979Z,1.40
2022-11-05T13:24:17.445Z,1.50
2022-11-05T13:26:52.048Z,1.20
2022-11-05T13:29:24.313Z,1.30
2022-11-05T13:34:22.348Z,1.13
2022-11-05T13:37:12.598Z,5.43
2022-11-05T13:39:46.559Z,1.90
2022-11-05T13:42:47.841Z,4.50
2022-11-05T13:45:34.678Z,1.90
2022-11-05T13:48:45.525Z,2.35
2022-11-05T13:51:47.728Z,2.75
2022-11-05T13:54:52.237Z,1.35
2022-11-05T13:57:43.395Z,2.90
2022-11-05T14:00:20.247Z,4.47
2022-11-05T14:02:52.193Z,7.25
2022-11-05T14:05:31.728Z,4.03
2022-11-05T14:08:01.692Z,2.50
2022-11-05T14:10:36.194Z,2.60
2022-11-05T14:13:27.984Z,3.50
2022-11-05T14:16:03.620Z,2.47
2022-11-05T14:18:41.286Z,2.20
2022-11-05T14:21:45.351Z,2.80
2022-11-05T14:24:44.084Z,2.80
2022-11-05T14:27:48.092Z,2.38
2022-11-05T14:30:43.426Z,2.20
2022-11-05T14:33:31.502Z,2.20
2022-11-05T14:36:31.686Z,2.30
2022-11-05T14:39:13.238Z,2.15
2022-11-05T14:41:57.734Z,2.30
2022-11-05T14:44:26.825Z,2.38
2022-11-05T14:46:58.276Z,2.60
2022-11-05T14:49:29.487Z,2.03
2022-11-05T14:51:59.446Z,2.15
2022-11-05T14:54:35.342Z,2.45
2022-11-05T14:57:04.420Z,2.42
2022-11-05T15:00:00.868Z,2.20
2022-11-05T15:02:36.389Z,2.33
2022-11-05T15:05:49.939Z,2.45
2022-11-05T15:08:38.100Z,4.60
2022-11-05T15:11:14.396Z,2.78
2022-11-05T15:13:51.837Z,3.05
2022-11-05T15:16:24.579Z,2.40
2022-11-05T15:18:55.420Z,2.88
2022-11-05T15:21:23.734Z,3.03
2022-11-05T15:23:56.280Z,2.97
2022-11-05T15:26:30.076Z,3.00
2022-11-05T15:28:59.124Z,2.50
2022-11-05T15:31:34.592Z,2.53
2022-11-05T15:34:23.296Z,3.20
2022-11-05T15:36:55.523Z,3.00
2022-11-05T15:39:33.932Z,2.72
2022-11-05T15:42:05.836Z,3.08
2022-11-05T15:44:38.975Z,2.97
2022-11-05T15:47:21.084Z,2.90
2022-11-05T15:49:52.599Z,2.72
2022-11-05T15:52:23.496Z,3.25
2022-11-05T15:55:18.776Z,3.13
2022-11-05T15:57:50.969Z,3.03
2022-11-05T16:00:22.270Z,3.20
2022-11-05T16:02:56.124Z,3.22
2022-11-05T16:05:28.390Z,3.42
2022-11-05T16:10:29.759Z,3.80
2022-11-05T16:12:57.635Z,4.50
2022-11-05T16:15:29.391Z,3.78
2022-11-05T16:17:59.371Z,3.10
2022-11-05T16:20:33.072Z,3.92
2022-11-05T16:23:03.232Z,3.92
2022-11-05T16:25:42.344Z,4.30
2022-11-05T16:28:23.131Z,3.53
2022-11-05T16:30:56.354Z,3.97
2022-11-05T16:33:24.916Z,3.83
2022-11-05T16:35:54.328Z,4.57
2022-11-05T16:38:22.710Z,5.18
2022-11-05T16:40:50.547Z,4.45
2022-11-05T16:43:21.017Z,4.75
2022-11-05T16:45:49.190Z,4.15
2022-11-05T16:48:17.597Z,4.15
2022-11-05T16:50:46.163Z,3.63
2022-11-05T16:53:15.569Z,3.50
2022-11-05T16:55:45.131Z,3.15
2022-11-05T16:58:20.526Z,2.67
2022-11-05T17:00:49.203Z,1.95
2022-11-05T17:03:17.061Z,1.98
2022-11-05T17:05:45.375Z,1.80
2022-11-05T17:08:13.544Z,3.55
2022-11-05T17:10:43.005Z,2.42
2022-11-05T17:13:14.040Z,2.20
2022-11-05T17:15:44.082Z,2.97
2022-11-05T17:18:18.238Z,2.97
2022-11-05T17:20:48.346Z,2.83
2022-11-05T17:23:17.932Z,2.63
2022-11-05T17:25:48.614Z,3.35
2022-11-05T17:28:17.344Z,2.60
2022-11-05T17:30:52.252Z,2.15
2022-11-05T17:33:22.552Z,2.80
2022-11-05T17:35:51.407Z,2.53
2022-11-05T17:38:19.991Z,2.15
2022-11-05T17:40:49.235Z,2.33
2022-11-05T17:43:17.537Z,1.90
2022-11-05T17:45:47.122Z,2.30
2022-11-05T17:48:15.442Z,2.15
2022-11-05T17:50:44.742Z,2.40
2022-11-05T17:53:14.039Z,2.22
2022-11-05T17:55:42.588Z,2.20
2022-11-05T17:58:12.290Z,2.63
2022-11-05T18:00:41.115Z,1.95
2022-11-05T18:03:10.537Z,2.05
2022-11-05T18:05:39.969Z,1.77
2022-11-05T18:08:08.136Z,2.35
2022-11-05T18:10:37.871Z,2.25
2022-11-05T18:13:05.775Z,2.45
2022-11-05T18:15:36.287Z,1.90
2022-11-05T18:18:04.308Z,2.20
2022-11-05T18:20:32.863Z,2.40
2022-11-05T18:23:00.722Z,2.25
2022-11-05T18:25:28.574Z,2.70
2022-11-05T18:27:56.973Z,3.13
2022-11-05T18:30:24.804Z,2.60
2022-11-05T18:32:54.449Z,3.40
2022-11-05T18:35:22.296Z,3.75
2022-11-05T18:37:50.127Z,4.00
2022-11-05T18:40:18.061Z,3.00
2022-11-05T18:42:45.879Z,3.95
2022-11-05T18:45:13.775Z,3.75
2022-11-05T18:47:41.601Z,4.15
2022-11-05T18:50:11.240Z,4.80
2022-11-05T18:52:39.052Z,4.28
2022-11-05T18:55:08.168Z,3.97
2022-11-05T18:57:39.113Z,4.45
2022-11-05T19:00:08.215Z,4.70
2022-11-05T19:02:38.598Z,4.55
2022-11-05T19:05:28.124Z,4.65
2022-11-05T19:07:56.398Z,5.10
2022-11-05T19:10:24.250Z,5.18
2022-11-05T19:12:52.087Z,6.57
2022-11-05T19:15:20.124Z,6.32
2022-11-05T19:17:47.962Z,5.78
2022-11-05T19:20:15.931Z,6.43
2022-11-05T19:22:43.752Z,6.30
2022-11-05T19:25:13.004Z,6.43
2022-11-05T19:27:42.532Z,7.78
2022-11-05T19:30:13.500Z,7.85
2022-11-05T19:32:41.337Z,6.53
2022-11-05T19:35:09.851Z,6.68
2022-11-05T19:37:37.692Z,7.68
2022-11-05T19:40:06.427Z,6.82
2022-11-05T19:42:35.565Z,7.57
2022-11-05T19:45:38.338Z,8.40
2022-11-05T19:47:51.319Z,7.80
2022-11-05T19:50:19.282Z,8.52
2022-11-05T19:52:47.126Z,8.48
2022-11-05T19:55:17.830Z,7.90
2022-11-05T19:57:47.013Z,9.68
2022-11-05T20:00:17.927Z,8.82
2022-11-05T20:02:51.191Z,8.32
2022-11-05T20:05:19.232Z,8.07
2022-11-05T20:07:52.512Z,8.07
2022-11-05T20:10:21.285Z,8.65
2022-11-05T20:12:52.737Z,9.85
2022-11-05T20:15:20.745Z,8.63
2022-11-05T20:17:55.051Z,8.60
2022-11-05T20:20:26.054Z,9.63
2022-11-05T20:22:56.044Z,8.82
2022-11-05T20:25:23.850Z,9.52
2022-11-05T20:27:53.001Z,8.63
2022-11-05T20:30:20.954Z,9.80
2022-11-05T20:32:48.859Z,8.98
2022-11-05T20:35:16.678Z,9.82
2022-11-05T20:37:47.346Z,10.70
2022-11-05T20:40:22.669Z,12.63
2022-11-05T20:42:51.854Z,18.48
2022-11-05T20:45:19.758Z,15.77
2022-11-05T20:47:47.866Z,14.93
2022-11-05T20:50:15.702Z,13.68
2022-11-05T20:52:43.518Z,11.73
2022-11-05T20:55:11.469Z,11.10
2022-11-05T20:57:39.451Z,9.82
2022-11-05T21:00:23.778Z,10.55
2022-11-05T21:02:51.680Z,10.82
2022-11-05T21:05:21.837Z,14.05
2022-11-05T21:07:49.699Z,15.45
2022-11-05T21:10:17.722Z,15.23
2022-11-05T21:12:45.778Z,16.50
2022-11-05T21:15:13.741Z,13.27
2022-11-05T21:17:43.963Z,10.95
2022-11-05T21:20:12.354Z,11.20
2022-11-05T21:22:42.997Z,12.10
2022-11-05T21:25:14.098Z,17.17
2022-11-05T21:27:43.681Z,18.48
2022-11-05T21:30:15.230Z,15.52
2022-11-05T21:32:44.402Z,17.23
2022-11-05T21:35:12.192Z,15.85
2022-11-05T21:37:40.075Z,12.35
2022-11-05T21:40:08.935Z,10.77
2022-11-05T21:42:36.757Z,11.95
2022-11-05T21:45:05.016Z,12.63
2022-11-05T21:47:32.889Z,11.80
2022-11-05T21:50:05.249Z,14.05
2022-11-05T21:52:50.728Z,14.70
2022-11-05T21:55:35.583Z,11.93
2022-11-05T21:58:28.249Z,12.30
2022-11-05T22:03:23.839Z,12.05
2022-11-05T22:05:53.409Z,10.50
2022-11-05T22:08:21.267Z,10.85
2022-11-05T22:10:49.179Z,11.93
2022-11-05T22:13:17.490Z,11.73
2022-11-05T22:15:54.660Z,11.80
2022-11-05T22:18:24.852Z,10.55
2022-11-05T22:20:54.039Z,11.18
2022-11-05T22:23:21.873Z,10.88
2022-11-05T22:25:49.759Z,11.45
2022-11-05T22:28:17.570Z,11.30
2022-11-05T22:30:45.399Z,11.27
2022-11-05T22:33:13.195Z,12.00
2022-11-05T22:35:41.002Z,11.38
2022-11-05T22:38:10.540Z,12.70
2022-11-05T22:40:39.229Z,11.05
2022-11-05T22:43:07.116Z,12.23
2022-11-05T22:45:36.459Z,11.98
2022-11-05T22:48:06.879Z,10.55
2022-11-05T22:50:35.186Z,11.38
2022-11-05T22:53:03.031Z,11.80
2022-11-05T22:55:32.215Z,11.55
2022-11-05T22:58:00.035Z,10.55
2022-11-05T23:00:35.587Z,10.95
2022-11-05T23:03:03.728Z,12.80
2022-11-05T23:05:31.632Z,11.50
2022-11-05T23:08:16.974Z,11.27
2022-11-05T23:11:03.815Z,12.80
2022-11-05T23:13:31.661Z,12.80
2022-11-05T23:16:17.152Z,12.27
2022-11-05T23:19:02.702Z,11.05
2022-11-05T23:21:48.024Z,12.00
2022-11-05T23:24:15.913Z,11.88
2022-11-05T23:26:50.956Z,11.00
2022-11-05T23:29:19.804Z,11.38
2022-11-05T23:32:05.686Z,11.68
2022-11-05T23:34:33.553Z,11.18
2022-11-05T23:37:30.155Z,11.23
2022-11-05T23:39:58.025Z,12.07
2022-11-05T23:42:44.676Z,12.20
2022-11-05T23:45:30.215Z,12.75
2022-11-05T23:48:16.079Z,11.73
2022-11-05T23:50:45.876Z,12.48
2022-11-05T23:53:14.268Z,11.48
2022-11-05T23:55:42.275Z,12.20
2022-11-05T23:58:12.080Z,12.13
